sensor_id;sensor_type;location;lat;lon;timestamp;temperature;humidity
41628;DHT22;27321;50.816;6.054;2023-02-22T00:00:00;8.60;75.10
41628;DHT22;27321;50.816;6.054;2023-02-22T00:03:01;8.60;75.00
41628;DHT22;27321;50.816;6.054;2023-02-22T00:06:04;8.60;74.90
41628;DHT22;27321;50.816;6.054;2023-02-22T00:09:06;8.60;75.20
41628;DHT22;27321;50.816;6.054;2023-02-22T00:12:08;8.60;75.00
41628;DHT22;27321;50.816;6.054;2023-02-22T00:15:09;8.60;75.10
41628;DHT22;27321;50.816;6.054;2023-02-22T00:18:16;8.50;74.90
41628;DHT22;27321;50.816;6.054;2023-02-22T00:21:18;8.50;74.80
41628;DHT22;27321;50.816;6.054;2023-02-22T00:24:19;8.50;74.70
41628;DHT22;27321;50.816;6.054;2023-02-22T00:27:22;8.50;74.80
41628;DHT22;27321;50.816;6.054;2023-02-22T00:30:27;8.50;74.70
41628;DHT22;27321;50.816;6.054;2023-02-22T00:33:29;8.50;74.70
41628;DHT22;27321;50.816;6.054;2023-02-22T00:36:31;8.50;74.90
41628;DHT22;27321;50.816;6.054;2023-02-22T00:39:32;8.40;74.40
41628;DHT22;27321;50.816;6.054;2023-02-22T00:42:33;8.40;74.40
41628;DHT22;27321;50.816;6.054;2023-02-22T00:45:35;8.40;74.60
41628;DHT22;27321;50.816;6.054;2023-02-22T00:48:36;8.30;74.40
41628;DHT22;27321;50.816;6.054;2023-02-22T00:51:38;8.40;74.00
41628;DHT22;27321;50.816;6.054;2023-02-22T00:54:39;8.30;74.10
41628;DHT22;27321;50.816;6.054;2023-02-22T00:57:40;8.30;73.90
41628;DHT22;27321;50.816;6.054;2023-02-22T01:00:42;8.30;74.00
41628;DHT22;27321;50.816;6.054;2023-02-22T01:03:43;8.20;73.90
41628;DHT22;27321;50.816;6.054;2023-02-22T01:06:44;8.20;73.80
41628;DHT22;27321;50.816;6.054;2023-02-22T01:09:45;8.10;74.00
41628;DHT22;27321;50.816;6.054;2023-02-22T01:12:48;8.10;74.50
41628;DHT22;27321;50.816;6.054;2023-02-22T01:15:49;8.10;73.90
41628;DHT22;27321;50.816;6.054;2023-02-22T01:18:51;8.20;73.90
41628;DHT22;27321;50.816;6.054;2023-02-22T01:21:52;8.10;73.30
41628;DHT22;27321;50.816;6.054;2023-02-22T01:24:54;8.10;73.50
41628;DHT22;27321;50.816;6.054;2023-02-22T01:27:55;8.00;72.80
41628;DHT22;27321;50.816;6.054;2023-02-22T01:30:58;8.00;73.10
41628;DHT22;27321;50.816;6.054;2023-02-22T01:34:00;7.80;73.30
41628;DHT22;27321;50.816;6.054;2023-02-22T01:37:01;7.80;73.50
41628;DHT22;27321;50.816;6.054;2023-02-22T01:40:04;7.70;73.20
41628;DHT22;27321;50.816;6.054;2023-02-22T01:46:24;7.70;72.60
41628;DHT22;27321;50.816;6.054;2023-02-22T01:49:51;7.70;72.90
41628;DHT22;27321;50.816;6.054;2023-02-22T01:52:51;7.60;71.90
41628;DHT22;27321;50.816;6.054;2023-02-22T01:55:54;7.60;72.00
41628;DHT22;27321;50.816;6.054;2023-02-22T01:59:02;7.60;72.00
41628;DHT22;27321;50.816;6.054;2023-02-22T02:02:06;7.60;71.60
41628;DHT22;27321;50.816;6.054;2023-02-22T02:05:08;7.60;72.30
41628;DHT22;27321;50.816;6.054;2023-02-22T02:08:14;7.60;71.50
41628;DHT22;27321;50.816;6.054;2023-02-22T02:11:22;7.60;72.30
41628;DHT22;27321;50.816;6.054;2023-02-22T02:14:25;7.50;72.10
41628;DHT22;27321;50.816;6.054;2023-02-22T02:17:26;7.40;73.70
41628;DHT22;27321;50.816;6.054;2023-02-22T02:38:56;7.10;73.80
41628;DHT22;27321;50.816;6.054;2023-02-22T02:42:20;7.10;72.60
41628;DHT22;27321;50.816;6.054;2023-02-22T02:46:10;7.00;73.10
41628;DHT22;27321;50.816;6.054;2023-02-22T02:48:56;7.00;72.50
41628;DHT22;27321;50.816;6.054;2023-02-22T02:51:59;7.00;71.80
41628;DHT22;27321;50.816;6.054;2023-02-22T02:55:03;7.00;71.70
41628;DHT22;27321;50.816;6.054;2023-02-22T02:58:09;6.90;71.10
41628;DHT22;27321;50.816;6.054;2023-02-22T03:01:34;6.80;71.70
41628;DHT22;27321;50.816;6.054;2023-02-22T03:12:16;6.80;70.90
41628;DHT22;27321;50.816;6.054;2023-02-22T03:16:31;6.70;71.10
41628;DHT22;27321;50.816;6.054;2023-02-22T03:19:50;6.60;71.50
41628;DHT22;27321;50.816;6.054;2023-02-22T03:26:38;6.60;71.50
41628;DHT22;27321;50.816;6.054;2023-02-22T03:29:44;6.60;71.00
41628;DHT22;27321;50.816;6.054;2023-02-22T03:32:51;6.60;71.10
41628;DHT22;27321;50.816;6.054;2023-02-22T03:36:00;6.60;70.40
41628;DHT22;27321;50.816;6.054;2023-02-22T03:39:15;6.60;70.40
41628;DHT22;27321;50.816;6.054;2023-02-22T03:42:31;6.60;70.50
41628;DHT22;27321;50.816;6.054;2023-02-22T03:45:36;6.50;70.10
41628;DHT22;27321;50.816;6.054;2023-02-22T03:49:01;6.60;69.70
41628;DHT22;27321;50.816;6.054;2023-02-22T03:52:10;6.60;70.20
41628;DHT22;27321;50.816;6.054;2023-02-22T03:55:14;6.60;70.20
41628;DHT22;27321;50.816;6.054;2023-02-22T03:58:20;6.60;69.50
41628;DHT22;27321;50.816;6.054;2023-02-22T04:01:22;6.60;69.60
41628;DHT22;27321;50.816;6.054;2023-02-22T04:04:24;6.60;69.40
41628;DHT22;27321;50.816;6.054;2023-02-22T04:07:26;6.60;69.60
41628;DHT22;27321;50.816;6.054;2023-02-22T04:10:27;6.50;69.80
41628;DHT22;27321;50.816;6.054;2023-02-22T04:13:28;6.50;70.50
41628;DHT22;27321;50.816;6.054;2023-02-22T04:16:30;6.50;70.20
41628;DHT22;27321;50.816;6.054;2023-02-22T04:19:31;6.50;70.30
41628;DHT22;27321;50.816;6.054;2023-02-22T04:22:33;6.50;70.60
41628;DHT22;27321;50.816;6.054;2023-02-22T04:25:34;6.50;71.00
41628;DHT22;27321;50.816;6.054;2023-02-22T04:28:44;6.50;70.60
41628;DHT22;27321;50.816;6.054;2023-02-22T04:31:51;6.50;70.80
41628;DHT22;27321;50.816;6.054;2023-02-22T04:34:52;6.50;70.90
41628;DHT22;27321;50.816;6.054;2023-02-22T04:37:53;6.50;70.70
41628;DHT22;27321;50.816;6.054;2023-02-22T04:40:54;6.50;70.60
41628;DHT22;27321;50.816;6.054;2023-02-22T04:43:55;6.50;71.30
41628;DHT22;27321;50.816;6.054;2023-02-22T04:46:59;6.50;71.30
41628;DHT22;27321;50.816;6.054;2023-02-22T04:50:00;6.50;71.50
41628;DHT22;27321;50.816;6.054;2023-02-22T04:53:04;6.50;71.70
41628;DHT22;27321;50.816;6.054;2023-02-22T04:56:05;6.50;71.60
41628;DHT22;27321;50.816;6.054;2023-02-22T04:59:06;6.50;71.50
41628;DHT22;27321;50.816;6.054;2023-02-22T05:02:07;6.50;71.50
41628;DHT22;27321;50.816;6.054;2023-02-22T05:05:08;6.50;71.80
41628;DHT22;27321;50.816;6.054;2023-02-22T05:08:09;6.50;71.50
41628;DHT22;27321;50.816;6.054;2023-02-22T05:11:10;6.50;71.30
41628;DHT22;27321;50.816;6.054;2023-02-22T05:14:11;6.50;71.50
41628;DHT22;27321;50.816;6.054;2023-02-22T05:17:12;6.50;71.40
41628;DHT22;27321;50.816;6.054;2023-02-22T05:20:33;6.50;71.10
41628;DHT22;27321;50.816;6.054;2023-02-22T05:23:34;6.50;71.50
41628;DHT22;27321;50.816;6.054;2023-02-22T05:26:36;6.50;71.20
41628;DHT22;27321;50.816;6.054;2023-02-22T05:29:36;6.50;71.00
41628;DHT22;27321;50.816;6.054;2023-02-22T05:32:38;6.50;71.10
41628;DHT22;27321;50.816;6.054;2023-02-22T05:35:39;6.40;71.30
41628;DHT22;27321;50.816;6.054;2023-02-22T05:38:40;6.40;71.30
41628;DHT22;27321;50.816;6.054;2023-02-22T05:41:42;6.40;71.30
41628;DHT22;27321;50.816;6.054;2023-02-22T05:44:43;6.50;71.10
41628;DHT22;27321;50.816;6.054;2023-02-22T05:47:45;6.50;71.00
41628;DHT22;27321;50.816;6.054;2023-02-22T05:50:46;6.50;71.40
41628;DHT22;27321;50.816;6.054;2023-02-22T05:53:48;6.50;71.00
41628;DHT22;27321;50.816;6.054;2023-02-22T05:56:51;6.50;71.40
41628;DHT22;27321;50.816;6.054;2023-02-22T05:59:52;6.50;70.60
41628;DHT22;27321;50.816;6.054;2023-02-22T06:03:01;6.50;71.30
41628;DHT22;27321;50.816;6.054;2023-02-22T06:06:04;6.50;71.20
41628;DHT22;27321;50.816;6.054;2023-02-22T06:09:05;6.50;71.50
41628;DHT22;27321;50.816;6.054;2023-02-22T06:12:07;6.40;71.70
41628;DHT22;27321;50.816;6.054;2023-02-22T06:15:08;6.50;71.80
41628;DHT22;27321;50.816;6.054;2023-02-22T06:18:09;6.50;71.70
41628;DHT22;27321;50.816;6.054;2023-02-22T06:21:10;6.50;71.80
41628;DHT22;27321;50.816;6.054;2023-02-22T06:24:11;6.50;71.60
41628;DHT22;27321;50.816;6.054;2023-02-22T06:27:12;6.50;71.90
41628;DHT22;27321;50.816;6.054;2023-02-22T06:30:16;6.50;71.50
41628;DHT22;27321;50.816;6.054;2023-02-22T06:33:18;6.50;71.70
41628;DHT22;27321;50.816;6.054;2023-02-22T06:36:19;6.40;71.80
41628;DHT22;27321;50.816;6.054;2023-02-22T06:39:20;6.40;71.80
41628;DHT22;27321;50.816;6.054;2023-02-22T06:42:21;6.50;71.80
41628;DHT22;27321;50.816;6.054;2023-02-22T06:45:22;6.40;71.90
41628;DHT22;27321;50.816;6.054;2023-02-22T06:48:23;6.40;71.90
41628;DHT22;27321;50.816;6.054;2023-02-22T06:51:26;6.40;72.40
41628;DHT22;27321;50.816;6.054;2023-02-22T06:54:27;6.40;72.20
41628;DHT22;27321;50.816;6.054;2023-02-22T06:57:28;6.40;72.00
41628;DHT22;27321;50.816;6.054;2023-02-22T07:00:30;6.40;72.40
41628;DHT22;27321;50.816;6.054;2023-02-22T07:03:32;6.50;72.50
41628;DHT22;27321;50.816;6.054;2023-02-22T07:06:35;6.50;72.40
41628;DHT22;27321;50.816;6.054;2023-02-22T07:09:36;6.50;72.00
41628;DHT22;27321;50.816;6.054;2023-02-22T07:12:37;6.50;72.30
41628;DHT22;27321;50.816;6.054;2023-02-22T07:15:38;6.50;72.60
41628;DHT22;27321;50.816;6.054;2023-02-22T07:18:39;6.60;72.90
41628;DHT22;27321;50.816;6.054;2023-02-22T07:21:39;6.70;72.80
41628;DHT22;27321;50.816;6.054;2023-02-22T07:24:40;6.70;72.60
41628;DHT22;27321;50.816;6.054;2023-02-22T07:27:42;6.80;73.00
41628;DHT22;27321;50.816;6.054;2023-02-22T07:30:43;6.80;73.00
41628;DHT22;27321;50.816;6.054;2023-02-22T07:33:48;6.80;73.20
41628;DHT22;27321;50.816;6.054;2023-02-22T07:36:49;6.90;73.40
41628;DHT22;27321;50.816;6.054;2023-02-22T07:39:50;6.90;73.80
41628;DHT22;27321;50.816;6.054;2023-02-22T07:43:09;7.00;73.90
41628;DHT22;27321;50.816;6.054;2023-02-22T07:46:17;7.00;74.00
41628;DHT22;27321;50.816;6.054;2023-02-22T07:49:18;7.10;74.00
41628;DHT22;27321;50.816;6.054;2023-02-22T07:52:19;7.20;74.00
41628;DHT22;27321;50.816;6.054;2023-02-22T07:55:22;7.20;74.10
41628;DHT22;27321;50.816;6.054;2023-02-22T07:58:27;7.30;74.60
41628;DHT22;27321;50.816;6.054;2023-02-22T08:01:29;7.30;74.90
41628;DHT22;27321;50.816;6.054;2023-02-22T08:04:31;7.40;75.00
41628;DHT22;27321;50.816;6.054;2023-02-22T08:07:32;7.40;75.00
41628;DHT22;27321;50.816;6.054;2023-02-22T08:10:34;7.50;75.10
41628;DHT22;27321;50.816;6.054;2023-02-22T08:13:35;7.60;75.40
41628;DHT22;27321;50.816;6.054;2023-02-22T08:16:36;7.60;75.40
41628;DHT22;27321;50.816;6.054;2023-02-22T08:19:37;7.70;75.50
41628;DHT22;27321;50.816;6.054;2023-02-22T08:22:41;7.80;75.50
41628;DHT22;27321;50.816;6.054;2023-02-22T08:25:43;7.90;75.80
41628;DHT22;27321;50.816;6.054;2023-02-22T08:28:44;7.90;76.10
41628;DHT22;27321;50.816;6.054;2023-02-22T08:31:49;8.00;76.20
41628;DHT22;27321;50.816;6.054;2023-02-22T08:34:53;8.20;76.30
41628;DHT22;27321;50.816;6.054;2023-02-22T08:37:57;8.30;76.30
41628;DHT22;27321;50.816;6.054;2023-02-22T08:41:00;8.40;76.20
41628;DHT22;27321;50.816;6.054;2023-02-22T08:44:01;8.50;75.90
41628;DHT22;27321;50.816;6.054;2023-02-22T08:47:02;8.60;75.70
41628;DHT22;27321;50.816;6.054;2023-02-22T08:50:04;8.70;76.10
41628;DHT22;27321;50.816;6.054;2023-02-22T08:53:08;8.80;76.50
41628;DHT22;27321;50.816;6.054;2023-02-22T08:56:10;8.80;77.10
41628;DHT22;27321;50.816;6.054;2023-02-22T08:59:11;8.90;77.00
41628;DHT22;27321;50.816;6.054;2023-02-22T09:02:17;9.00;76.90
41628;DHT22;27321;50.816;6.054;2023-02-22T09:05:20;9.10;77.00
41628;DHT22;27321;50.816;6.054;2023-02-22T09:08:21;9.20;77.00
41628;DHT22;27321;50.816;6.054;2023-02-22T09:11:22;9.30;76.90
41628;DHT22;27321;50.816;6.054;2023-02-22T09:14:23;9.50;76.50
41628;DHT22;27321;50.816;6.054;2023-02-22T09:17:24;9.60;76.30
41628;DHT22;27321;50.816;6.054;2023-02-22T09:20:27;9.70;75.10
41628;DHT22;27321;50.816;6.054;2023-02-22T09:23:28;9.80;75.10
41628;DHT22;27321;50.816;6.054;2023-02-22T09:26:29;9.90;74.70
41628;DHT22;27321;50.816;6.054;2023-02-22T09:29:30;10.00;73.80
41628;DHT22;27321;50.816;6.054;2023-02-22T09:32:31;10.10;73.40
41628;DHT22;27321;50.816;6.054;2023-02-22T09:35:32;10.30;73.20
41628;DHT22;27321;50.816;6.054;2023-02-22T09:38:35;10.40;72.60
41628;DHT22;27321;50.816;6.054;2023-02-22T09:41:46;10.50;71.90
41628;DHT22;27321;50.816;6.054;2023-02-22T09:52:32;10.90;70.70
41628;DHT22;27321;50.816;6.054;2023-02-22T09:55:39;11.00;70.30
41628;DHT22;27321;50.816;6.054;2023-02-22T09:58:48;11.10;70.00
41628;DHT22;27321;50.816;6.054;2023-02-22T10:02:02;11.20;69.80
41628;DHT22;27321;50.816;6.054;2023-02-22T10:05:22;11.20;69.50
41628;DHT22;27321;50.816;6.054;2023-02-22T10:08:30;11.30;68.90
41628;DHT22;27321;50.816;6.054;2023-02-22T10:11:48;11.40;67.80
41628;DHT22;27321;50.816;6.054;2023-02-22T10:22:36;11.60;66.70
41628;DHT22;27321;50.816;6.054;2023-02-22T10:25:54;11.80;66.50
41628;DHT22;27321;50.816;6.054;2023-02-22T10:29:07;11.90;65.90
41628;DHT22;27321;50.816;6.054;2023-02-22T10:32:20;12.00;65.10
41628;DHT22;27321;50.816;6.054;2023-02-22T10:35:29;12.10;65.20
41628;DHT22;27321;50.816;6.054;2023-02-22T10:38:33;12.10;65.50
41628;DHT22;27321;50.816;6.054;2023-02-22T10:41:40;12.20;65.90
41628;DHT22;27321;50.816;6.054;2023-02-22T10:44:44;12.30;65.60
41628;DHT22;27321;50.816;6.054;2023-02-22T10:47:48;12.30;66.00
41628;DHT22;27321;50.816;6.054;2023-02-22T10:50:52;12.40;66.20
41628;DHT22;27321;50.816;6.054;2023-02-22T10:54:03;12.40;66.00
41628;DHT22;27321;50.816;6.054;2023-02-22T10:57:25;12.50;65.90
41628;DHT22;27321;50.816;6.054;2023-02-22T11:00:32;12.60;65.40
41628;DHT22;27321;50.816;6.054;2023-02-22T11:03:36;12.70;65.70
41628;DHT22;27321;50.816;6.054;2023-02-22T11:06:40;12.80;65.50
41628;DHT22;27321;50.816;6.054;2023-02-22T11:10:10;12.80;65.10
41628;DHT22;27321;50.816;6.054;2023-02-22T11:13:26;12.90;64.20
41628;DHT22;27321;50.816;6.054;2023-02-22T11:16:42;13.00;64.40
41628;DHT22;27321;50.816;6.054;2023-02-22T11:19:48;13.10;65.10
41628;DHT22;27321;50.816;6.054;2023-02-22T11:22:58;13.10;64.70
41628;DHT22;27321;50.816;6.054;2023-02-22T11:26:05;13.20;64.20
41628;DHT22;27321;50.816;6.054;2023-02-22T11:29:21;13.20;64.60
41628;DHT22;27321;50.816;6.054;2023-02-22T11:32:25;13.20;64.00
41628;DHT22;27321;50.816;6.054;2023-02-22T11:35:56;13.30;64.40
41628;DHT22;27321;50.816;6.054;2023-02-22T11:38:57;13.30;64.30
41628;DHT22;27321;50.816;6.054;2023-02-22T11:42:21;13.30;64.40
41628;DHT22;27321;50.816;6.054;2023-02-22T11:45:24;13.40;64.50
41628;DHT22;27321;50.816;6.054;2023-02-22T11:48:32;13.40;64.60
41628;DHT22;27321;50.816;6.054;2023-02-22T11:55:23;13.50;64.70
41628;DHT22;27321;50.816;6.054;2023-02-22T11:58:42;13.50;65.30
41628;DHT22;27321;50.816;6.054;2023-02-22T12:01:58;13.60;65.40
41628;DHT22;27321;50.816;6.054;2023-02-22T12:05:34;13.60;65.50
41628;DHT22;27321;50.816;6.054;2023-02-22T12:09:00;13.70;64.80
41628;DHT22;27321;50.816;6.054;2023-02-22T12:12:51;13.80;64.30
41628;DHT22;27321;50.816;6.054;2023-02-22T12:15:52;13.90;65.10
41628;DHT22;27321;50.816;6.054;2023-02-22T12:19:46;13.90;63.70
41628;DHT22;27321;50.816;6.054;2023-02-22T12:26:50;14.00;63.50
41628;DHT22;27321;50.816;6.054;2023-02-22T12:30:01;14.00;63.20
41628;DHT22;27321;50.816;6.054;2023-02-22T12:33:24;14.00;63.20
41628;DHT22;27321;50.816;6.054;2023-02-22T12:36:40;14.10;63.10
41628;DHT22;27321;50.816;6.054;2023-02-22T12:43:28;14.00;63.30
41628;DHT22;27321;50.816;6.054;2023-02-22T12:46:43;14.00;64.20
41628;DHT22;27321;50.816;6.054;2023-02-22T12:50:23;14.00;64.40
41628;DHT22;27321;50.816;6.054;2023-02-22T12:53:32;14.00;64.50
41628;DHT22;27321;50.816;6.054;2023-02-22T12:56:58;14.00;63.20
41628;DHT22;27321;50.816;6.054;2023-02-22T13:03:26;14.00;63.90
41628;DHT22;27321;50.816;6.054;2023-02-22T13:13:44;14.10;63.50
41628;DHT22;27321;50.816;6.054;2023-02-22T13:17:21;14.20;63.20
41628;DHT22;27321;50.816;6.054;2023-02-22T13:24:27;14.20;63.30
41628;DHT22;27321;50.816;6.054;2023-02-22T13:27:42;14.20;62.50
41628;DHT22;27321;50.816;6.054;2023-02-22T13:31:45;14.20;63.20
41628;DHT22;27321;50.816;6.054;2023-02-22T13:38:20;14.10;63.70
41628;DHT22;27321;50.816;6.054;2023-02-22T13:52:23;14.30;64.10
41628;DHT22;27321;50.816;6.054;2023-02-22T13:55:28;14.30;64.20
41628;DHT22;27321;50.816;6.054;2023-02-22T13:58:32;14.30;64.40
41628;DHT22;27321;50.816;6.054;2023-02-22T14:01:59;14.30;64.40
41628;DHT22;27321;50.816;6.054;2023-02-22T14:08:44;14.20;65.10
41628;DHT22;27321;50.816;6.054;2023-02-22T14:11:47;14.20;64.60
41628;DHT22;27321;50.816;6.054;2023-02-22T14:18:15;14.10;65.00
41628;DHT22;27321;50.816;6.054;2023-02-22T14:21:19;14.20;65.30
41628;DHT22;27321;50.816;6.054;2023-02-22T14:24:21;14.30;65.00
41628;DHT22;27321;50.816;6.054;2023-02-22T14:27:22;14.30;65.10
41628;DHT22;27321;50.816;6.054;2023-02-22T14:30:29;14.30;64.90
41628;DHT22;27321;50.816;6.054;2023-02-22T14:34:09;14.40;65.00
41628;DHT22;27321;50.816;6.054;2023-02-22T14:37:24;14.40;64.90
41628;DHT22;27321;50.816;6.054;2023-02-22T14:40:36;14.50;64.60
41628;DHT22;27321;50.816;6.054;2023-02-22T14:43:38;14.40;63.90
41628;DHT22;27321;50.816;6.054;2023-02-22T14:46:41;14.50;64.20
41628;DHT22;27321;50.816;6.054;2023-02-22T14:49:47;14.40;63.60
41628;DHT22;27321;50.816;6.054;2023-02-22T14:53:03;14.40;64.30
41628;DHT22;27321;50.816;6.054;2023-02-22T14:59:23;14.20;64.90
41628;DHT22;27321;50.816;6.054;2023-02-22T15:02:26;14.20;65.00
41628;DHT22;27321;50.816;6.054;2023-02-22T15:05:33;14.10;65.50
41628;DHT22;27321;50.816;6.054;2023-02-22T15:08:37;14.10;65.70
41628;DHT22;27321;50.816;6.054;2023-02-22T15:11:41;14.10;65.40
41628;DHT22;27321;50.816;6.054;2023-02-22T15:14:45;14.00;65.30
41628;DHT22;27321;50.816;6.054;2023-02-22T15:17:54;13.90;65.50
41628;DHT22;27321;50.816;6.054;2023-02-22T15:21:01;13.90;65.70
41628;DHT22;27321;50.816;6.054;2023-02-22T15:24:31;13.80;65.80
41628;DHT22;27321;50.816;6.054;2023-02-22T15:27:34;13.80;65.60
41628;DHT22;27321;50.816;6.054;2023-02-22T15:30:36;13.80;65.70
41628;DHT22;27321;50.816;6.054;2023-02-22T15:33:38;13.70;66.10
41628;DHT22;27321;50.816;6.054;2023-02-22T15:36:44;13.70;66.30
41628;DHT22;27321;50.816;6.054;2023-02-22T15:39:47;13.70;66.30
41628;DHT22;27321;50.816;6.054;2023-02-22T15:42:49;13.60;66.10
41628;DHT22;27321;50.816;6.054;2023-02-22T15:45:59;13.60;66.50
41628;DHT22;27321;50.816;6.054;2023-02-22T15:52:24;13.60;66.70
41628;DHT22;27321;50.816;6.054;2023-02-22T15:55:39;13.50;66.60
41628;DHT22;27321;50.816;6.054;2023-02-22T15:58:45;13.50;66.90
41628;DHT22;27321;50.816;6.054;2023-02-22T16:01:49;13.50;67.30
41628;DHT22;27321;50.816;6.054;2023-02-22T16:04:59;13.50;67.60
41628;DHT22;27321;50.816;6.054;2023-02-22T16:08:24;13.40;67.80
41628;DHT22;27321;50.816;6.054;2023-02-22T16:11:34;13.40;68.00
41628;DHT22;27321;50.816;6.054;2023-02-22T16:14:43;13.40;68.20
41628;DHT22;27321;50.816;6.054;2023-02-22T16:17:44;13.40;68.30
41628;DHT22;27321;50.816;6.054;2023-02-22T16:21:00;13.40;68.40
41628;DHT22;27321;50.816;6.054;2023-02-22T16:24:05;13.40;68.40
41628;DHT22;27321;50.816;6.054;2023-02-22T16:27:16;13.30;68.50
41628;DHT22;27321;50.816;6.054;2023-02-22T16:30:26;13.30;68.70
41628;DHT22;27321;50.816;6.054;2023-02-22T16:33:33;13.20;69.00
41628;DHT22;27321;50.816;6.054;2023-02-22T16:36:40;13.20;69.20
41628;DHT22;27321;50.816;6.054;2023-02-22T16:39:44;13.20;69.60
41628;DHT22;27321;50.816;6.054;2023-02-22T16:42:45;13.10;69.80
41628;DHT22;27321;50.816;6.054;2023-02-22T16:45:47;13.10;70.30
41628;DHT22;27321;50.816;6.054;2023-02-22T16:48:48;13.10;70.80
41628;DHT22;27321;50.816;6.054;2023-02-22T16:51:55;13.00;71.30
41628;DHT22;27321;50.816;6.054;2023-02-22T16:54:59;13.00;71.50
41628;DHT22;27321;50.816;6.054;2023-02-22T16:58:02;13.00;72.00
41628;DHT22;27321;50.816;6.054;2023-02-22T17:01:04;12.90;72.30
41628;DHT22;27321;50.816;6.054;2023-02-22T17:04:13;12.90;72.50
41628;DHT22;27321;50.816;6.054;2023-02-22T17:07:20;12.90;72.80
41628;DHT22;27321;50.816;6.054;2023-02-22T17:10:29;12.90;73.20
41628;DHT22;27321;50.816;6.054;2023-02-22T17:13:30;12.90;73.60
41628;DHT22;27321;50.816;6.054;2023-02-22T17:16:31;12.80;73.80
41628;DHT22;27321;50.816;6.054;2023-02-22T17:19:32;12.80;73.90
41628;DHT22;27321;50.816;6.054;2023-02-22T17:22:33;12.90;74.20
41628;DHT22;27321;50.816;6.054;2023-02-22T17:28:43;12.90;74.00
41628;DHT22;27321;50.816;6.054;2023-02-22T17:31:44;12.90;74.30
41628;DHT22;27321;50.816;6.054;2023-02-22T17:34:45;12.80;74.30
41628;DHT22;27321;50.816;6.054;2023-02-22T17:37:46;12.80;74.60
41628;DHT22;27321;50.816;6.054;2023-02-22T17:40:48;12.70;74.60
41628;DHT22;27321;50.816;6.054;2023-02-22T17:43:51;12.80;74.80
41628;DHT22;27321;50.816;6.054;2023-02-22T17:46:53;12.80;74.70
41628;DHT22;27321;50.816;6.054;2023-02-22T17:49:54;12.70;74.50
41628;DHT22;27321;50.816;6.054;2023-02-22T17:52:58;12.70;74.60
41628;DHT22;27321;50.816;6.054;2023-02-22T17:56:10;12.60;74.50
41628;DHT22;27321;50.816;6.054;2023-02-22T17:59:13;12.60;74.80
41628;DHT22;27321;50.816;6.054;2023-02-22T18:02:14;12.60;74.80
41628;DHT22;27321;50.816;6.054;2023-02-22T18:05:16;12.50;75.10
41628;DHT22;27321;50.816;6.054;2023-02-22T18:08:19;12.50;75.00
41628;DHT22;27321;50.816;6.054;2023-02-22T18:11:20;12.50;75.20
41628;DHT22;27321;50.816;6.054;2023-02-22T18:14:26;12.50;75.30
41628;DHT22;27321;50.816;6.054;2023-02-22T18:17:28;12.50;75.30
41628;DHT22;27321;50.816;6.054;2023-02-22T18:20:31;12.40;75.40
41628;DHT22;27321;50.816;6.054;2023-02-22T18:23:37;12.50;75.30
41628;DHT22;27321;50.816;6.054;2023-02-22T18:26:38;12.40;75.00
41628;DHT22;27321;50.816;6.054;2023-02-22T18:29:40;12.40;75.10
41628;DHT22;27321;50.816;6.054;2023-02-22T18:32:41;12.40;75.00
41628;DHT22;27321;50.816;6.054;2023-02-22T18:35:47;12.30;75.30
41628;DHT22;27321;50.816;6.054;2023-02-22T18:38:53;12.30;75.20
41628;DHT22;27321;50.816;6.054;2023-02-22T18:41:54;12.20;75.30
41628;DHT22;27321;50.816;6.054;2023-02-22T18:44:55;12.30;75.20
41628;DHT22;27321;50.816;6.054;2023-02-22T18:48:00;12.30;75.00
41628;DHT22;27321;50.816;6.054;2023-02-22T18:51:02;12.30;75.10
41628;DHT22;27321;50.816;6.054;2023-02-22T18:54:10;12.30;75.00
41628;DHT22;27321;50.816;6.054;2023-02-22T18:57:12;12.30;74.90
41628;DHT22;27321;50.816;6.054;2023-02-22T19:00:16;12.30;74.80
41628;DHT22;27321;50.816;6.054;2023-02-22T19:03:18;12.30;74.40
41628;DHT22;27321;50.816;6.054;2023-02-22T19:06:19;12.30;74.70
41628;DHT22;27321;50.816;6.054;2023-02-22T19:09:23;12.20;74.70
41628;DHT22;27321;50.816;6.054;2023-02-22T19:12:24;12.10;75.10
41628;DHT22;27321;50.816;6.054;2023-02-22T19:15:26;12.20;75.00
41628;DHT22;27321;50.816;6.054;2023-02-22T19:18:28;12.10;75.30
41628;DHT22;27321;50.816;6.054;2023-02-22T19:21:31;12.10;75.50
41628;DHT22;27321;50.816;6.054;2023-02-22T19:24:35;12.10;75.70
41628;DHT22;27321;50.816;6.054;2023-02-22T19:27:36;12.10;75.80
41628;DHT22;27321;50.816;6.054;2023-02-22T19:30:37;12.10;75.70
41628;DHT22;27321;50.816;6.054;2023-02-22T19:33:42;12.10;76.30
41628;DHT22;27321;50.816;6.054;2023-02-22T19:36:44;12.10;76.30
41628;DHT22;27321;50.816;6.054;2023-02-22T19:39:46;12.00;76.40
41628;DHT22;27321;50.816;6.054;2023-02-22T19:42:48;12.00;76.50
41628;DHT22;27321;50.816;6.054;2023-02-22T19:45:50;12.10;76.50
41628;DHT22;27321;50.816;6.054;2023-02-22T19:48:53;12.10;76.60
41628;DHT22;27321;50.816;6.054;2023-02-22T19:51:57;12.10;76.40
41628;DHT22;27321;50.816;6.054;2023-02-22T19:54:59;12.10;76.40
41628;DHT22;27321;50.816;6.054;2023-02-22T19:58:00;12.10;76.30
41628;DHT22;27321;50.816;6.054;2023-02-22T20:01:09;12.10;76.40
41628;DHT22;27321;50.816;6.054;2023-02-22T20:04:15;12.10;76.60
41628;DHT22;27321;50.816;6.054;2023-02-22T20:07:17;12.10;76.50
41628;DHT22;27321;50.816;6.054;2023-02-22T20:10:18;12.20;76.60
41628;DHT22;27321;50.816;6.054;2023-02-22T20:13:19;12.10;76.50
41628;DHT22;27321;50.816;6.054;2023-02-22T20:16:21;12.20;76.60
41628;DHT22;27321;50.816;6.054;2023-02-22T20:19:23;12.20;76.80
41628;DHT22;27321;50.816;6.054;2023-02-22T20:22:26;12.10;77.00
41628;DHT22;27321;50.816;6.054;2023-02-22T20:25:27;12.10;76.90
41628;DHT22;27321;50.816;6.054;2023-02-22T20:28:28;12.10;77.10
41628;DHT22;27321;50.816;6.054;2023-02-22T20:31:30;12.10;77.20
41628;DHT22;27321;50.816;6.054;2023-02-22T20:34:31;12.10;77.20
41628;DHT22;27321;50.816;6.054;2023-02-22T20:37:33;12.20;77.10
41628;DHT22;27321;50.816;6.054;2023-02-22T20:40:35;12.10;77.10
41628;DHT22;27321;50.816;6.054;2023-02-22T20:43:36;12.10;77.10
41628;DHT22;27321;50.816;6.054;2023-02-22T20:46:37;12.10;77.30
41628;DHT22;27321;50.816;6.054;2023-02-22T20:49:38;12.10;77.10
41628;DHT22;27321;50.816;6.054;2023-02-22T20:52:39;12.10;77.10
41628;DHT22;27321;50.816;6.054;2023-02-22T20:55:50;12.10;77.10
41628;DHT22;27321;50.816;6.054;2023-02-22T20:58:54;12.10;77.20
41628;DHT22;27321;50.816;6.054;2023-02-22T21:01:56;12.10;77.20
41628;DHT22;27321;50.816;6.054;2023-02-22T21:04:57;12.10;77.40
41628;DHT22;27321;50.816;6.054;2023-02-22T21:07:58;12.10;77.50
41628;DHT22;27321;50.816;6.054;2023-02-22T21:11:00;12.10;77.40
41628;DHT22;27321;50.816;6.054;2023-02-22T21:14:02;12.10;77.10
41628;DHT22;27321;50.816;6.054;2023-02-22T21:17:03;12.10;77.30
41628;DHT22;27321;50.816;6.054;2023-02-22T21:20:04;12.00;77.70
41628;DHT22;27321;50.816;6.054;2023-02-22T21:23:15;12.00;77.60
41628;DHT22;27321;50.816;6.054;2023-02-22T21:26:21;12.00;77.90